Time;durP1;ratioP1;P1;durP2;ratioP2;P2;SDS_P1;SDS_P2;PMS_P1;PMS_P2;Temp;Humidity;BMP_temperature;BMP_pressure;BME280_temperature;BME280_humidity;BME280_pressure;Samples;Min_cycle;Max_cycle;Signal;HPM_P1;HPM_P2
2022/04/20 00:13:57;;;;;;;;;;;;;;;;;;5090065;28;20410;-68
2022/04/20 00:16:23;;;;;;;;;;;;;;;;;;5093319;28;19913;-68
2022/04/20 00:18:50;;;;;;;;;;;;;;;;;;5092122;28;19908;-69
2022/04/20 00:21:16;;;;;;;;;;;;;;;;;;5074347;28;20344;-69
2022/04/20 00:23:42;;;;;;;;;;;;;;;;;;5092929;28;19919;-69
2022/04/20 00:26:08;;;;;;;;;;;;;;;;;;5074062;28;19909;-69
2022/04/20 00:28:33;;;;;;;;;;;11.70;1.00;;;;;;5092572;28;20049;-68
2022/04/20 00:30:59;;;;;;;;;;;11.50;1.00;;;;;;5092686;28;19969;-81
2022/04/20 00:33:25;;;;;;;;;;;;;;;;;;5085481;28;19961;-68
2022/04/20 00:35:50;;;;;;;;;;;;;;;;;;5071281;28;20335;-68
2022/04/20 00:38:17;;;;;;;;;;;;;;;;;;5053922;28;20261;-68
2022/04/20 00:40:43;;;;;;;;;;;;;;;;;;5054646;28;20094;-69
2022/04/20 00:43:08;;;;;;;;;;;;;;;;;;5053951;28;20027;-68
2022/04/20 00:45:34;;;;;;;;;;;;;;;;;;5054799;28;19913;-68
2022/04/20 00:48:00;;;;;;;;;;;;;;;;;;5054411;28;19909;-79
2022/04/20 00:50:26;;;;;;;;;;;;;;;;;;5071931;28;19992;-69
2022/04/20 00:52:52;;;;;;;;;;;11.60;1.00;;;;;;5072446;28;19915;-68
2022/04/20 00:55:18;;;;;;;;;;;;;;;;;;5071723;28;20207;-68
2022/04/20 00:57:43;;;;;;;;;;;;;;;;;;5072021;28;19919;-69
2022/04/20 01:00:09;;;;;;;;;;;;;;;;;;5053700;28;19908;-68
2022/04/20 01:02:35;;;;;;;;;;;;;;;;;;5054416;28;19948;-69
2022/04/20 01:05:01;;;;;;;;;;;;;;;;;;5072042;28;19919;-79
2022/04/20 01:07:27;;;;;;;;;;;;;;;;;;5072007;28;19908;-69
2022/04/20 01:09:53;;;;;;;;;;;;;;;;;;5075400;28;20273;-69
2022/04/20 01:12:21;;;;;;;;;;;;;;;;;;5057230;28;20003;-69
2022/04/20 01:14:46;;;;;;;;;;;;;;;;;;5057973;28;19927;-69
2022/04/20 01:24:55;;;;;;;;;;;;;;;;;;5360238;22;20500;-88
2022/04/20 01:27:21;;;;;;;;;;;;;;;;;;5117484;28;19955;-86
2022/04/20 01:29:47;;;;;;;;;;;;;;;;;;5117788;28;19933;-87
2022/04/20 01:32:12;;;;;;;;;;;;;;;;;;5117041;28;19908;-88
2022/04/20 01:34:38;;;;;;;;;;;;;;;;;;5116618;28;20362;-88
2022/04/20 01:37:04;;;;;;;;;;;;;;;;;;5117294;28;19938;-86
2022/04/20 01:39:30;;;;;;;;;;;;;;;;;;5099314;28;19915;-87
2022/04/20 01:41:56;;;;;;;;;;;;;;;;;;5117495;28;19962;-87
2022/04/20 01:44:22;;;;;;;;;;;;;;;;;;5112908;28;19911;-87
2022/04/20 01:46:48;;;;;;;;;;;;;;;;;;5105374;28;20274;-87
2022/04/20 01:49:14;;;;;;;;;;;;;;;;;;5096530;28;19915;-86
2022/04/20 01:51:52;;;;;;;;;;;;;;;;;;5096531;28;19908;-86
2022/04/20 01:54:19;;;;;;;;;;;;;;;;;;5095530;28;20259;-86
2022/04/20 01:56:46;;;;;;;;;;;;;;;;;;5095814;28;20283;-87
2022/04/20 01:59:12;;;;;;;;;;;;;;;;;;5095638;28;19916;-87
2022/04/20 02:04:23;;;;;;;;;;;;;;;;;;5095358;28;20000;-87
2022/04/20 02:06:48;;;;;;;;;;;;;;;;;;5094642;28;20007;-87
2022/04/20 02:09:14;;;;;;;;;;;;;;;;;;5096232;28;20054;-86
2022/04/20 02:11:40;;;;;;;;;;;;;;;;;;5095527;28;19915;-86
2022/04/20 02:14:06;;;;;;;;;;;;;;;;;;5096205;28;20377;-85
2022/04/20 02:16:32;;;;;;;;;;;;;;;;;;5095450;28;19919;-86
2022/04/20 02:18:58;;;;;;;;;;;;;;;;;;5096060;28;19953;-87
2022/04/20 02:21:24;;;;;;;;;;;;;;;;;;5093301;28;19953;-86
2022/04/20 02:23:50;;;;;;;;;;;;;;;;;;5095614;28;20435;-86
2022/04/20 02:26:16;;;;;;;;;;;;;;;;;;5094678;28;19920;-86
2022/04/20 02:28:41;;;;;;;;;;;;;;;;;;5094305;28;20317;-86
2022/04/20 02:31:07;;;;;;;;;;;;;;;;;;5095818;28;19909;-85
2022/04/20 02:33:33;;;;;;;;;;;;;;;;;;5093324;28;19960;-85
2022/04/20 02:35:59;;;;;;;;;;;;;;;;;;5093940;28;19919;-86
2022/04/20 02:38:25;;;;;;;;;;;10.20;1.00;;;;;;5094776;28;19913;-85
2022/04/20 02:40:51;;;;;;;;;;;;;;;;;;5095323;28;20018;-84
2022/04/20 02:43:17;;;;;;;;;;;;;;;;;;5095098;28;20373;-86
2022/04/20 02:45:42;;;;;;;;;;;;;;;;;;5092812;28;19937;-86
2022/04/20 02:48:08;;;;;;;;;;;;;;;;;;5094000;28;19908;-87
2022/04/20 02:50:34;;;;;;;;;;;;;;;;;;5094726;28;19912;-86
2022/04/20 02:53:00;;;;;;;;;;;;;;;;;;5094015;28;19908;-87
2022/04/20 02:55:26;;;;;;;;;;;;;;;;;;5093002;28;19920;-85
2022/04/20 02:57:52;;;;;;;;;;;;;;;;;;5093393;28;19912;-86
2022/04/20 03:00:18;;;;;;;;;;;;;;;;;;5094698;28;19915;-86
2022/04/20 03:02:44;;;;;;;;;;;;;;;;;;5092780;28;19908;-86
2022/04/20 03:05:09;;;;;;;;;;;;;;;;;;5092997;28;19977;-85
2022/04/20 03:07:35;;;;;;;;;;;;;;;;;;5093614;28;19915;-86
2022/04/20 03:10:01;;;;;;;;;;;;;;;;;;5094077;28;20358;-84
2022/04/20 03:12:27;;;;;;;;;;;;;;;;;;5093304;28;19999;-86
2022/04/20 03:14:54;;;;;;;;;;;;;;;;;;5093564;28;20006;-87
2022/04/20 03:17:21;;;;;;;;;;;;;;;;;;5093753;28;20006;-74
2022/04/20 03:19:47;;;;;;;;;;;;;;;;;;5094196;28;19908;-86
2022/04/20 03:22:13;;;;;;;;;;;;;;;;;;5094019;28;20003;-87
2022/04/20 03:24:39;;;;;;;;;;;;;;;;;;5093084;28;19920;-86
2022/04/20 03:27:04;;;;;;;;;;;;;;;;;;5093894;28;19971;-86
2022/04/20 03:29:30;;;;;;;;;;;;;;;;;;5093275;28;19955;-86
2022/04/20 03:31:56;;;;;;;;;;;;;;;;;;5092722;28;19909;-88
2022/04/20 03:34:22;;;;;;;;;;;;;;;;;;5092474;28;19912;-76
2022/04/20 03:36:48;;;;;;;;;;;;;;;;;;5092346;28;19919;-87
2022/04/20 03:39:14;;;;;;;;;;;;;;;;;;5094019;28;19914;-88
2022/04/20 03:41:40;;;;;;;;;;;;;;;;;;5092042;28;20255;-88
2022/04/20 03:44:06;;;;;;;;;;;;;;;;;;5092447;28;19908;-87
2022/04/20 03:46:31;;;;;;;;;;;;;;;;;;5091514;28;19934;-88
2022/04/20 03:48:57;;;;;;;;;;;;;;;;;;5093654;28;19908;-88
2022/04/20 03:51:23;;;;;;;;;;;;;;;;;;5093054;28;20297;-76
2022/04/20 03:53:49;;;;;;;;;;;;;;;;;;5091969;28;20240;-87
2022/04/20 03:56:15;;;;;;;;;;;;;;;;;;5091860;28;20053;-86
2022/04/20 03:58:41;;;;;;;;;;;;;;;;;;5091334;28;19923;-88
2022/04/20 04:01:07;;;;;;;;;;;;;;;;;;5091946;28;19977;-86
2022/04/20 04:03:33;;;;;;;;;;;;;;;;;;5092620;28;19908;-86
2022/04/20 04:05:59;;;;;;;;;;;;;;;;;;5093257;28;20394;-86
2022/04/20 04:08:25;;;;;;;;;;;;;;;;;;5092939;28;19912;-76
2022/04/20 04:10:51;;;;;;;;;;;;;;;;;;5093121;28;19915;-86
2022/04/20 04:13:17;;;;;;;;;;;;;;;;;;5093211;28;20318;-88
2022/04/20 04:15:43;;;;;;;;;;;;;;;;;;5092547;28;19959;-87
2022/04/20 04:18:09;;;;;;;;;;;;;;;;;;5091953;28;20267;-87
2022/04/20 04:20:35;;;;;;;;;;;;;;;;;;5092386;28;19908;-87
2022/04/20 04:23:01;;;;;;;;;;;;;;;;;;5093396;28;19908;-86
2022/04/20 04:25:27;;;;;;;;;;;;;;;;;;5090966;28;20367;-76
2022/04/20 04:27:53;;;;;;;;;;;;;;;;;;5092914;28;19912;-87
2022/04/20 04:30:19;;;;;;;;;;;;;;;;;;5098708;28;19919;-87
2022/04/20 04:32:45;;;;;;;;;;;;;;;;;;5103734;28;20020;-88
2022/04/20 04:35:11;;;;;;;;;;;;;;;;;;5094878;28;19912;-86
2022/04/20 04:37:37;;;;;;;;;;;;;;;;;;5102541;28;19912;-88
2022/04/20 04:40:03;;;;;;;;;;;;;;;;;;5113964;28;19914;-87
2022/04/20 04:42:28;;;;;;;;;;;;;;;;;;5112986;28;19908;-76
2022/04/20 04:48:36;;;;;;;;;;;;;;;;;;5117242;28;19912;-86
2022/04/20 04:50:25;;;;;;;;;;;;;;;;;;5117124;28;19918;-87
2022/04/20 04:52:51;;;;;;;;;;;;;;;;;;5116753;28;20247;-86
2022/04/20 04:55:17;;;;;;;;;;;;;;;;;;5117530;28;19920;-86
2022/04/20 04:57:43;;;;;;;;;;;;;;;;;;5098315;28;20367;-85
2022/04/20 05:00:09;;;;;;;;;;;;;;;;;;5117092;28;19951;-85
2022/04/20 05:02:35;;;;;;;;;;;;;;;;;;5098245;28;19912;-85
2022/04/20 05:05:01;;;;;;;;;;;;;;;;;;5117534;28;19914;-85
2022/04/20 05:07:26;;;;;;;;;;;;;;;;;;5115002;28;20003;-77
2022/04/20 05:09:52;;;;;;;;;;;;;;;;;;5096789;28;20350;-85
2022/04/20 05:12:19;;;;;;;;;;;;;;;;;;5116635;28;19908;-86
2022/04/20 05:14:45;;;;;;;;;;;;;;;;;;5097951;28;20011;-86
2022/04/20 05:17:11;;;;;;;;;;;;;;;;;;5098565;28;20045;-85
2022/04/20 05:19:37;;;;;;;;;;;;;;;;;;5097489;28;19915;-87
2022/04/20 05:22:03;;;;;;;;;;;;;;;;;;5116771;28;20002;-88
2022/04/20 05:24:29;;;;;;;;;;;;;;;;;;5112771;28;20010;-77
2022/04/20 05:26:55;;;;;;;;;;;;;;;;;;5114107;28;20363;-86
2022/04/20 05:29:21;;;;;;;;;;;;;;;;;;5094234;28;20283;-87
2022/04/20 05:31:51;;;;;;;;;;;;;;;;;;5095184;28;19930;-82
2022/04/20 05:34:17;;;;;;;;;;;;;;;;;;5103144;28;19908;-86
2022/04/20 05:42:13;;;;;;;;;;;;;;;;;;5115344;28;20412;-80
2022/04/20 05:44:39;;;;;;;;;;;;;;;;;;5114433;28;19912;-77
2022/04/20 05:47:04;;;;;;;;;;;;;;;;;;5097786;28;19912;-79
2022/04/20 05:49:30;;;;;;;;;;;;;;;;;;5097040;28;19955;-73
2022/04/20 05:51:56;;;;;;;;;;;;;;;;;;5093229;28;19908;-80
2022/04/20 05:54:23;;;;;;;;;;;;;;;;;;5094477;28;19916;-82
2022/04/20 05:56:49;;;;;;;;;;;;;;;;;;5105146;28;19923;-83
2022/04/20 05:59:15;;;;;;;;;;;;;;;;;;5105467;28;20524;-85
2022/04/20 06:01:41;;;;;;;;;;;;;;;;;;5096737;28;19943;-86
2022/04/20 06:04:07;;;;;;;;;;;;;;;;;;5115928;28;19969;-85
2022/04/20 06:06:33;;;;;;;;;;;;;;;;;;5087480;28;19977;-79
2022/04/20 06:08:59;;;;;;;;;;;;;;;;;;5086052;28;20375;-84
2022/04/20 06:11:26;;;;;;;;;;;;;;;;;;5105217;28;19916;-82
2022/04/20 06:13:52;;;;;;;;;;;;;;;;;;5102398;28;19914;-82
2022/04/20 06:16:18;;;;;;;;;;;;;;;;;;5085758;28;19912;-81
2022/04/20 06:18:44;;;;;;;;;;;;;;;;;;5085939;28;19961;-81
2022/04/20 06:21:10;;;;;;;;;;;;;;;;;;5102667;28;19930;-82
2022/04/20 06:23:36;;;;;;;;;;;;;;;;;;5108028;28;20347;-83
2022/04/20 06:26:02;;;;;;;;;;;;;;;;;;5114842;28;19919;-83
2022/04/20 06:28:28;;;;;;;;;;;;;;;;;;5117916;28;20350;-84
2022/04/20 06:30:54;;;;;;;;;;;;;;;;;;5098603;28;19930;-82
2022/04/20 06:33:21;;;;;;;;;;;;;;;;;;5116038;28;20284;-82
2022/04/20 06:35:47;;;;;;;;;;;;;;;;;;5091720;28;19912;-81
2022/04/20 06:38:13;;;;;;;;;;;;;;;;;;5092686;28;19912;-81
2022/04/20 06:40:39;;;;;;;;;;;;;;;;;;5093555;28;19908;-81
2022/04/20 06:43:05;;;;;;;;;;;;;;;;;;5094130;28;19919;-81
2022/04/20 06:45:31;;;;;;;;;;;;;;;;;;5094612;28;19915;-81
2022/04/20 06:47:57;;;;;;;;;;;;;;;;;;5112893;28;20002;-82
2022/04/20 06:50:23;;;;;;;;;;;;;;;;;;5115225;28;19958;-82
2022/04/20 06:58:35;;;;;;;;;;;;;;;;;;5109001;28;19962;-82
2022/04/20 07:01:01;;;;;;;;;;;;;;;;;;5114651;28;19915;-81
2022/04/20 07:03:27;;;;;;;;;;;;;;;;;;5096460;28;19908;-81
2022/04/20 07:05:53;;;;;;;;;;;;;;;;;;5109732;28;19967;-81
2022/04/20 07:08:19;;;;;;;;;;;;;;;;;;5075800;28;19915;-82
2022/04/20 07:10:47;;;;;;;;;;;;;;;;;;5075470;28;19971;-82
2022/04/20 07:13:13;;;;;;;;;;;;;;;;;;5094257;28;19934;-80
2022/04/20 07:15:39;;;;;;;;;;;;;;;;;;5093471;28;19912;-80
2022/04/20 07:18:08;;;;;;;;;;;;;;;;;;5094535;28;19922;-82
2022/04/20 07:20:34;;;;;;;;;;;;;;;;;;5093536;28;19916;-74
2022/04/20 07:23:00;;;;;;;;;;;;;;;;;;5094407;28;19908;-81
2022/04/20 07:25:25;;;;;;;;;;;;;;;;;;5113934;28;19934;-73
2022/04/20 07:27:53;;;;;;;;;;;;;;;;;;5094650;28;20014;-81
2022/04/20 07:30:19;;;;;;;;;;;;;;;;;;5104344;28;20371;-82
2022/04/20 07:32:46;;;;;;;;;;;;;;;;;;5114024;28;19964;-82
2022/04/20 07:35:12;;;;;;;;;;;;;;;;;;5114697;28;19918;-82
2022/04/20 07:37:38;;;;;;;;;;;;;;;;;;5114838;28;19912;-82
2022/04/20 07:40:04;;;;;;;;;;;;;;;;;;5114819;28;19915;-81
2022/04/20 07:42:29;;;;;;;;;;;;;;;;;;5115169;28;19911;-82
2022/04/20 07:44:56;;;;;;;;;;;;;;;;;;5096263;28;19958;-81
2022/04/20 07:47:24;;;;;;;;;;;;;;;;;;5114264;28;20313;-83
2022/04/20 07:52:34;;;;;;;;;;;;;;;;;;5114798;28;19931;-82
2022/04/20 07:55:00;;;;;;;;;;;;;;;;;;5105023;28;19952;-81
2022/04/20 07:57:26;;;;;;;;;;;;;;;;;;5102833;28;19923;-82
2022/04/20 07:59:52;;;;;;;;;;;;;;;;;;5103692;28;19915;-83
2022/04/20 08:02:20;;;;;;;;;;;;;;;;;;5083233;28;19912;-82
2022/04/20 08:04:46;;;;;;;;;;;;;;;;;;5084733;28;19915;-81
2022/04/20 08:07:12;;;;;;;;;;;;;;;;;;5084438;28;20003;-82
2022/04/20 08:09:38;;;;;;;;;;;;;;;;;;5105676;28;19912;-82
2022/04/20 08:12:04;;;;;;;;;;;;;;;;;;5103159;28;19908;-81
2022/04/20 08:14:30;;;;;;;;;;;;;;;;;;5104802;28;19996;-83
2022/04/20 08:16:56;;;;;;;;;;;;;;;;;;5103861;28;19919;-82
2022/04/20 08:19:22;;;;;;;;;;;;;;;;;;5083501;28;19908;-81
2022/04/20 08:21:48;;;;;;;;;;;;;;;;;;5092175;28;20317;-82
2022/04/20 08:24:13;;;;;;;;;;;;;;;;;;5084725;28;19908;-81
2022/04/20 08:26:39;;;;;;;;;;;;;;;;;;5101650;28;19912;-81
2022/04/20 08:29:09;;;;;;;;;;;;;;;;;;5108304;28;20303;-82
2022/04/20 08:31:35;;;;;;;;;;;;;;;;;;5095403;28;19998;-83
2022/04/20 08:34:01;;;;;;;;;;;;;;;;;;5113209;28;19951;-83
2022/04/20 08:36:27;;;;;;;;;;;;;;;;;;5095161;28;19912;-81
2022/04/20 08:38:53;;;;;;;;;;;;;;;;;;5094534;28;19911;-82
2022/04/20 08:41:19;;;;;;;;;;;;;;;;;;5108288;28;20373;-82
2022/04/20 08:43:45;;;;;;;;;;;;;;;;;;5113336;28;19912;-83
2022/04/20 08:46:11;;;;;;;;;;;;;;;;;;5113556;28;20414;-83
2022/04/20 08:48:37;;;;;;;;;;;;;;;;;;5095229;28;19955;-83
2022/04/20 08:51:03;;;;;;;;;;;;;;;;;;5112460;28;19914;-82
2022/04/20 08:53:29;;;;;;;;;;;;;;;;;;5113500;28;20346;-83
2022/04/20 08:58:39;;;;;;;;;;;;;;;;;;5112386;28;19919;-73
2022/04/20 09:01:05;;;;;;;;;;;;;;;;;;5113213;28;19916;-82
2022/04/20 09:03:31;;;;;;;;;;;;;;;;;;5113360;28;19907;-82
2022/04/20 09:05:58;;;;;;;;;;;;;;;;;;5112813;28;19961;-81
2022/04/20 09:08:25;;;;;;;;;;;;;;;;;;5113056;28;20271;-82
2022/04/20 09:10:51;;;;;;;;;;;;;;;;;;5110635;28;19920;-82
2022/04/20 09:13:17;;;;;;;;;;;;;;;;;;5086154;28;19991;-82
2022/04/20 09:15:43;;;;;;;;;;;;;;;;;;5103495;28;19918;-81
2022/04/20 09:18:12;;;;;;;;;;;;;;;;;;5086239;28;20279;-82
2022/04/20 09:20:38;;;;;;;;;;;;;;;;;;5099011;28;19912;-82
2022/04/20 09:23:04;;;;;;;;;;;;;;;;;;5091857;28;19959;-83
2022/04/20 09:25:31;;;;;;;;;;;;;;;;;;5091093;28;19920;-83
2022/04/20 09:27:56;;;;;;;;;;;;;;;;;;5090970;28;20060;-83
2022/04/20 09:30:22;;;;;;;;;;;;;;;;;;5093600;28;19957;-84
2022/04/20 09:32:49;;;;;;;;;;;;;;;;;;5095591;28;19915;-83
2022/04/20 09:35:14;;;;;;;;;;;;;;;;;;5094838;28;20377;-81
2022/04/20 09:37:40;;;;;;;;;;;;;;;;;;5095981;28;19993;-80
2022/04/20 09:40:06;;;;;;;;;;;;;;;;;;5103920;28;19908;-78
2022/04/20 09:42:33;;;;;;;;;;;;;;;;;;5115748;28;19908;-76
2022/04/20 09:45:02;;;;;;;;;;;;;;;;;;5100598;28;19908;-76
2022/04/20 09:50:13;;;;;;;;;;;;;;;;;;5095568;28;20419;-77
2022/04/20 09:52:39;;;;;;;;;;;;;;;;;;5095766;28;19908;-77
2022/04/20 09:55:06;;;;;;;;;;;;;;;;;;5094830;28;19935;-77
2022/04/20 09:57:31;;;;;;;;;;;;;;;;;;5094296;28;19962;-77
2022/04/20 09:59:57;;;;;;;;;;;;;;;;;;5095351;28;20259;-78
2022/04/20 10:02:23;;;;;;;;;;;;;;;;;;5095445;28;19908;-78
2022/04/20 10:04:51;;;;;;;;;;;;;;;;;;5094558;28;20003;-79
2022/04/20 10:07:17;;;;;;;;;;;;;;;;;;5095575;28;20255;-79
2022/04/20 10:09:43;;;;;;;;;;;;;;;;;;5094101;28;19915;-79
2022/04/20 10:12:09;;;;;;;;;;;;;;;;;;5095389;28;19908;-79
2022/04/20 10:17:20;;;;;;;;;;;;;;;;;;5094178;28;19914;-80
2022/04/20 10:19:47;;;;;;;;;;;;;;;;;;5094447;28;20372;-78
2022/04/20 10:22:13;;;;;;;;;;;;;;;;;;5094924;28;19933;-75
2022/04/20 10:24:38;;;;;;;;;;;;;;;;;;5076714;28;19920;-78
2022/04/20 10:27:04;;;;;;;;;;;;;;;;;;5094069;28;19923;-82
2022/04/20 10:29:30;;;;;;;;;;;;;;;;;;5094904;28;19912;-74
2022/04/20 10:31:56;;;;;;;;;;;;;;;;;;5094330;28;19930;-73
2022/04/20 10:34:22;;;;;;;;;;;;;;;;;;5076812;28;20355;-80
2022/04/20 10:36:48;;;;;;;;;;;;;;;;;;5094189;28;19995;-70
2022/04/20 10:39:14;;;;;;;;;;;;;;;;;;5094839;28;19909;-72
2022/04/20 10:41:40;;;;;;;;;;;;;;;;;;5094049;28;19999;-73
2022/04/20 10:44:06;;;;;;;;;;;;;;;;;;5093856;28;19912;-73
2022/04/20 10:46:32;;;;;;;;;;;;;;;;;;5076004;28;20360;-80
2022/04/20 10:49:02;;;;;;;;;;;;;;;;;;5093970;28;19915;-83
2022/04/20 10:51:29;;;;;;;;;;;;;;;;;;5094406;28;19908;-77
2022/04/20 10:53:55;;;;;;;;;;;;;;;;;;5093873;28;20398;-77
2022/04/20 10:56:21;;;;;;;;;;;;;;;;;;5094156;28;19920;-74
2022/04/20 10:58:47;;;;;;;;;;;;;;;;;;5075507;28;19912;-74
2022/04/20 11:01:13;;;;;;;;;;;;;;;;;;5094104;28;19911;-72
2022/04/20 11:03:39;;;;;;;;;;;;;;;;;;5094271;28;19915;-72
2022/04/20 11:06:05;;;;;;;;;;;;;;;;;;5093780;28;19912;-72
2022/04/20 11:08:31;;;;;;;;;;;;;;;;;;5094035;28;20321;-86
2022/04/20 11:19:06;;;;;;;;;;;;;;;;;;5102233;28;19916;-85
2022/04/20 11:21:32;;;;;;;;;;;;;;;;;;5103189;28;19908;-86
2022/04/20 11:23:58;;;;;;;;;;;;;;;;;;5103834;28;20248;-86
2022/04/20 11:26:31;;;;;;;;;;;;;;;;;;5102575;28;19942;-85
2022/04/20 11:28:57;;;;;;;;;;;;;;;;;;5111485;27;19986;-85
2022/04/20 11:31:23;;;;;;;;;;;;;;;;;;5116832;27;19984;-84
2022/04/20 11:33:49;;;;;;;;;;;;;;;;;;5133691;27;20362;-86
2022/04/20 11:36:14;;;;;;;;;;;;;;;;;;5118314;27;20316;-85
2022/04/20 11:38:41;;;;;;;;;;;;;;;;;;5118894;27;19965;-84
2022/04/20 11:41:07;;;;;;;;;;;;;;;;;;5120893;27;20241;-85
2022/04/20 11:43:34;;;;;;;;;;;;;;;;;;5106157;28;19925;-85
2022/04/20 11:46:00;;;;;;;;;;;;;;;;;;5102109;28;20418;-85
2022/04/20 11:48:26;;;;;;;;;;;;;;;;;;5102162;28;20434;-84
2022/04/20 11:50:52;;;;;;;;;;;;;;;;;;5095695;28;20014;-85
2022/04/20 11:53:19;;;;;;;;;;;;;;;;;;5094035;28;19908;-85
2022/04/20 11:55:45;;;;;;;;;;;;;;;;;;5076832;28;20482;-85
2022/04/20 11:58:11;;;;;;;;;;;;;;;;;;5094143;28;19919;-84
2022/04/20 12:00:37;;;;;;;;;;;;;;;;;;5100472;28;19912;-85
2022/04/20 12:03:03;;;;;;;;;;;;;;;;;;5094384;28;19953;-84
2022/04/20 12:05:28;;;;;;;;;;;;;;;;;;5096989;28;20006;-85
2022/04/20 12:07:54;;;;;;;;;;;;;;;;;;5095267;28;19914;-84
2022/04/20 12:10:20;;;;;;;;;;;;;;;;;;5113574;28;19961;-84
2022/04/20 12:12:46;;;;;;;;;;;;;;;;;;5113848;28;19915;-84
2022/04/20 12:15:13;;;;;;;;;;;;;;;;;;5113413;28;19916;-85
2022/04/20 12:17:39;;;;;;;;;;;;;;;;;;5095553;28;19955;-84
2022/04/20 12:20:05;;;;;;;;;;;;;;;;;;5111449;28;19923;-82
2022/04/20 12:22:31;;;;;;;;;;;;;;;;;;5104477;28;20276;-77
2022/04/20 12:24:57;;;;;;;;;;;;;;;;;;5084586;28;19926;-81
2022/04/20 12:27:24;;;;;;;;;;;;;;;;;;5103534;28;19941;-83
2022/04/20 12:29:50;;;;;;;;;;;;;;;;;;5101946;28;19949;-68
2022/04/20 12:32:16;;;;;;;;;;;;;;;;;;5101989;28;20002;-75
2022/04/20 12:34:42;;;;;;;;;;;;;;;;;;5104175;28;19916;-75
2022/04/20 12:37:08;;;;;;;;;;;;;;;;;;5103725;28;19916;-77
2022/04/20 12:39:38;;;;;;;;;;;;;;;;;;5101334;28;19908;-75
2022/04/20 12:42:04;;;;;;;;;;;;;;;;;;5103863;28;19951;-77
2022/04/20 12:44:31;;;;;;;;;;;;;;;;;;5107083;28;20327;-77
2022/04/20 12:46:57;;;;;;;;;;;;;;;;;;5103286;28;19914;-77
2022/04/20 12:49:25;;;;;;;;;;;;;;;;;;5103588;28;19908;-77
2022/04/20 12:51:51;;;;;;;;;;;;;;;;;;5103609;28;19908;-79
2022/04/20 12:54:17;;;;;;;;;;;;;;;;;;5103538;28;20022;-76
2022/04/20 13:02:16;;;;;;;;;;;;;;;;;;5083470;28;20363;-82
2022/04/20 13:04:44;;;;;;;;;;;;;;;;;;5114651;28;19915;-81
2022/04/20 13:07:10;;;;;;;;;;;;;;;;;;5097681;28;19930;-80
2022/04/20 13:09:36;;;;;;;;;;;;;;;;;;5117132;28;20347;-83
2022/04/20 13:12:02;;;;;;;;;;;;;;;;;;5116944;28;19915;-81
2022/04/20 13:14:27;;;;;;;;;;;;;;;;;;5117026;28;20416;-75
2022/04/20 13:16:53;;;;;;;;;;;;;;;;;;5098600;28;19924;-83
2022/04/20 13:19:19;;;;;;;;;;;;;;;;;;5097200;28;20259;-85
2022/04/20 13:21:45;;;;;;;;;;;;;;;;;;5096561;28;19912;-83
2022/04/20 13:24:11;;;;;;;;;;;;;;;;;;5095610;28;20430;-86
2022/04/20 13:29:22;;;;;;;;;;;;;;;;;;5113674;28;19961;-82
2022/04/20 13:31:48;;;;;;;;;;;;;;;;;;5096596;28;19912;-80
2022/04/20 13:34:14;;;;;;;;;;;;;;;;;;5107240;28;19939;-82
2022/04/20 13:36:40;;;;;;;;;;;;;;;;;;5115602;28;19916;-80
2022/04/20 13:39:06;;;;;;;;;;;;;;;;;;5115219;28;19965;-82
2022/04/20 13:41:32;;;;;;;;;;;;;;;;;;5116118;28;20309;-82
2022/04/20 13:43:59;;;;;;;;;;;;;;;;;;5115641;28;19908;-81
2022/04/20 13:46:25;;;;;;;;;;;;;;;;;;5116440;28;19961;-83
2022/04/20 13:48:52;;;;;;;;;;;;;;;;;;5097899;28;19908;-82
2022/04/20 13:51:18;;;;;;;;;;;;;;;;;;5115576;28;19908;-82
2022/04/20 13:53:43;;;;;;;;;;;;;;;;;;5097481;28;19918;-81
2022/04/20 13:56:11;;;;;;;;;;;;;;;;;;5115279;28;20267;-81
2022/04/20 13:58:37;;;;;;;;;;;;;;;;;;5116005;28;19915;-83
2022/04/20 14:01:03;;;;;;;;;;;;;;;;;;5115389;28;19998;-83
2022/04/20 14:03:29;;;;;;;;;;;;;;;;;;5116057;28;19962;-83
2022/04/20 14:05:55;;;;;;;;;;;;;;;;;;5097694;28;20263;-83
2022/04/20 14:08:21;;;;;;;;;;;;;;;;;;5115833;28;19915;-84
2022/04/20 14:10:47;;;;;;;;;;;;;;;;;;5097551;28;19943;-83
2022/04/20 14:13:13;;;;;;;;;;;;;;;;;;5115505;28;19908;-84
2022/04/20 14:15:38;;;;;;;;;;;;;;;;;;5096950;28;19919;-83
2022/04/20 14:18:04;;;;;;;;;;;;;;;;;;5114648;28;19951;-83
2022/04/20 14:20:30;;;;;;;;;;;;;;;;;;5115625;28;20350;-84
2022/04/20 14:22:58;;;;;;;;;;;;;;;;;;5115625;28;20375;-83
2022/04/20 14:33:38;;;;;;;;;;;;;;;;;;5115375;28;19929;-82
2022/04/20 14:36:04;;;;;;;;;;;;;;;;;;5114653;28;20355;-83
2022/04/20 14:38:30;;;;;;;;;;;;;;;;;;5115268;28;19912;-82
2022/04/20 14:40:56;;;;;;;;;;;;;;;;;;5114874;28;19993;-82
2022/04/20 14:43:22;;;;;;;;;;;;;;;;;;5114379;28;19908;-82
2022/04/20 14:45:48;;;;;;;;;;;;;;;;;;5114991;28;20267;-83
2022/04/20 14:48:15;;;;;;;;;;;;;;;;;;5114204;28;19915;-83
2022/04/20 14:50:41;;;;;;;;;;;;;;;;;;5114753;28;19907;-82
2022/04/20 14:53:08;;;;;;;;;;;;;;;;;;5115039;28;20015;-82
2022/04/20 14:55:35;;;;;;;;;;;;;;;;;;5114592;28;19920;-81
2022/04/20 14:58:01;;;;;;;;;;;;;;;;;;5114497;28;19957;-83
2022/04/20 15:00:27;;;;;;;;;;;;;;;;;;5115066;28;19908;-82
2022/04/20 15:02:53;;;;;;;;;;;;;;;;;;5114678;28;20010;-82
2022/04/20 15:05:19;;;;;;;;;;;;;;;;;;5114042;28;20163;-83
2022/04/20 15:07:45;;;;;;;;;;;;;;;;;;5114766;28;19960;-83
2022/04/20 15:10:11;;;;;;;;;;;;;;;;;;5113993;28;19912;-80
2022/04/20 15:12:39;;;;;;;;;;;;;;;;;;5114364;28;20359;-82
2022/04/20 15:15:05;;;;;;;;;;;;;;;;;;5113923;28;19920;-80
2022/04/20 15:17:32;;;;;;;;;;;;;;;;;;5114654;28;20312;-82
2022/04/20 15:19:58;;;;;;;;;;;;;;;;;;5114598;28;19908;-83
2022/04/20 15:22:23;;;;;;;;;;;;;;;;;;5113490;28;20248;-83
2022/04/20 15:24:49;;;;;;;;;;;;;;;;;;5092678;28;19951;-83
2022/04/20 15:27:15;;;;;;;;;;;;;;;;;;5093813;28;19959;-82
2022/04/20 15:29:42;;;;;;;;;;;;;;;;;;5094321;28;19908;-84
2022/04/20 15:32:08;;;;;;;;;;;;;;;;;;5093492;28;20364;-84
2022/04/20 15:34:34;;;;;;;;;;;;;;;;;;5093778;28;19915;-83
2022/04/20 15:37:05;;;;;;;;;;;;;;;;;;5093859;28;19919;-83
2022/04/20 15:39:31;;;;;;;;;;;;;;;;;;5093953;28;20336;-84
2022/04/20 15:41:56;;;;;;;;;;;;;;;;;;5093967;28;19957;-83
2022/04/20 15:44:22;;;;;;;;;;;;;;;;;;5091215;28;19974;-83
2022/04/20 15:46:48;;;;;;;;;;;;;;;;;;5093694;28;19908;-83
2022/04/20 15:49:14;;;;;;;;;;;;;;;;;;5093203;28;20268;-84
2022/04/20 15:51:40;;;;;;;;;;;;;;;;;;5093970;28;19908;-84
2022/04/20 15:54:06;;;;;;;;;;;;;;;;;;5092882;28;19912;-82
2022/04/20 16:02:02;;;;;;;;;;;;;;;;;;5093433;28;19915;-83
2022/04/20 16:04:35;;;;;;;;;;;;;;;;;;5093323;28;20014;-83
2022/04/20 16:07:01;;;;;;;;;;;;;;;;;;5093361;28;19914;-82
2022/04/20 16:09:27;;;;;;;;;;;;;;;;;;5092661;28;19908;-83
2022/04/20 16:11:54;;;;;;;;;;;;;;;;;;5093708;28;19908;-83
2022/04/20 16:14:20;;;;;;;;;;;;;;;;;;5092940;28;19915;-83
2022/04/20 16:16:46;;;;;;;;;;;;;;;;;;5093273;28;19949;-83
2022/04/20 16:19:12;;;;;;;;;;;;;;;;;;5092628;28;19908;-83
2022/04/20 16:21:38;;;;;;;;;;;;;;;;;;5085288;28;19913;-82
2022/04/20 16:24:04;;;;;;;;;;;;;;;;;;5096733;28;19935;-70
2022/04/20 16:26:32;;;;;;;;;;;;;;;;;;5099993;28;19965;-86
2022/04/20 16:28:58;;;;;;;;;;;;;;;;;;5085949;28;19912;-83
2022/04/20 16:31:23;;;;;;;;;;;;;;;;;;5101433;28;19908;-76
2022/04/20 16:33:49;;;;;;;;;;;;;;;;;;5086129;28;20363;-80
2022/04/20 16:36:17;;;;;;;;;;;;;;;;;;5097935;28;19920;-75
2022/04/20 16:38:43;;;;;;;;;;;;;;;;;;5101405;28;19911;-74
2022/04/20 16:41:09;;;;;;;;;;;;;;;;;;5091056;28;20310;-72
2022/04/20 16:43:35;;;;;;;;;;;;;;;;;;5099024;28;19912;-77
2022/04/20 16:46:01;;;;;;;;;;;;;;;;;;5095870;28;19919;-79
2022/04/20 16:48:29;;;;;;;;;;;;;;;;;;5079551;28;20287;-83
2022/04/20 16:50:55;;;;;;;;;;;;;;;;;;5089878;28;19935;-85
2022/04/20 16:53:21;;;;;;;;;;;;;;;;;;5115309;28;19999;-82
2022/04/20 16:55:47;;;;;;;;;;;;;;;;;;5099815;28;19978;-80
2022/04/20 16:58:13;;;;;;;;;;;;;;;;;;5093829;28;19955;-84
2022/04/20 17:00:42;;;;;;;;;;;;;;;;;;5116486;28;20248;-83
2022/04/20 17:03:08;;;;;;;;;;;;;;;;;;5116376;28;19994;-83
2022/04/20 17:05:34;;;;;;;;;;;;;;;;;;5099448;28;20386;-84
2022/04/20 17:08:02;;;;;;;;;;;;;;;;;;5116796;28;19952;-84
2022/04/20 17:10:28;;;;;;;;;;;;;;;;;;5098102;28;20049;-85
2022/04/20 17:12:54;;;;;;;;;;;;;;;;;;5116575;28;20006;-84
2022/04/20 17:15:20;;;;;;;;;;;;;;;;;;5115011;28;20284;-84
2022/04/20 17:17:46;;;;;;;;;;;;;;;;;;5096503;28;19916;-81
2022/04/20 17:28:25;;;;;;;;;;;;;;;;;;5097888;28;19999;-82
2022/04/20 17:30:51;;;;;;;;;;;;;;;;;;5096136;28;19908;-82
2022/04/20 17:33:17;;;;;;;;;;;;;;;;;;5095319;28;19916;-81
2022/04/20 17:38:27;;;;;;;;;;;;;;;;;;5105392;28;19923;-78
2022/04/20 17:40:53;;;;;;;;;;;;;;;;;;5114950;28;19907;-79
2022/04/20 17:43:19;;;;;;;;;;;;;;;;;;5110921;28;20006;-78
2022/04/20 17:45:48;;;;;;;;;;;;;;;;;;5111586;28;19912;-80
2022/04/20 17:48:14;;;;;;;;;;;;;;;;;;5108726;28;19915;-78
2022/04/20 17:50:40;;;;;;;;;;;;;;;;;;5113279;28;20295;-79
2022/04/20 17:53:06;;;;;;;;;;;;;;;;;;5115737;28;19919;-80
2022/04/20 17:55:32;;;;;;;;;;;;;;;;;;5096970;28;20001;-79
2022/04/20 17:57:58;;;;;;;;;;;;;;;;;;5115985;28;19908;-79
2022/04/20 18:00:24;;;;;;;;;;;;;;;;;;5095762;28;20270;-83
2022/04/20 18:02:51;;;;;;;;;;;;;;;;;;5112419;28;19911;-85
2022/04/20 18:05:19;;;;;;;;;;;;;;;;;;5106789;28;19915;-83